Date,TemperatureHighF,TemperatureAvgF,TemperatureLowF,DewpointHighF,DewpointAvgF,DewpointLowF,HumidityHigh,HumidityAvg,HumidityLow,PressureMaxIn,PressureMinIn,WindSpeedMaxMPH,WindSpeedAvgMPH,GustSpeedMaxMPH,PrecipitationSumIn
2013-3-1,62.4,49.2,39.5,42.0,36.8,32.0,92,66,36,30.16,30.00,14,2,0,0.00
2013-3-2,51.1,41.5,33.8,34.0,30.9,28.0,88,67,51,30.24,30.12,13,3,0,0.00
2013-3-3,57.6,42.4,30.2,41.0,29.2,26.0,92,64,31,30.27,30.14,9,1,0,0.00
2013-3-4,64.7,54.0,37.7,57.0,48.8,37.0,99,83,65,30.16,29.98,14,4,0,0.00
2013-3-5,76.3,63.3,48.4,64.0,56.1,44.0,92,78,49,30.17,29.94,13,3,0,0.00
2013-3-6,64.9,51.0,39.2,44.0,35.0,32.0,89,57,31,30.30,30.17,12,2,0,0.00
2013-3-7,58.1,48.0,40.2,45.0,38.9,34.0,93,72,50,30.35,30.23,10,1,0,0.00
2013-3-8,67.1,52.3,38.3,51.0,44.8,38.0,99,78,47,30.31,30.19,9,1,0,0.00
2013-3-9,68.3,58.6,47.4,61.0,54.7,46.0,98,88,61,30.20,30.00,15,5,0,0.00
2013-3-10,73.9,66.7,61.8,67.0,63.7,60.0,96,90,79,30.03,29.89,18,9,0,0.00
2013-3-11,66.2,56.6,46.5,65.0,53.2,44.0,98,88,68,30.01,29.83,13,3,0,0.01
2013-3-12,69.7,52.3,40.5,44.0,41.4,39.0,94,70,35,30.20,30.00,7,1,0,0.00
2013-3-13,69.0,53.6,40.4,43.0,35.9,28.0,93,58,23,30.37,30.20,8,1,0,0.00
2013-3-14,68.0,51.7,41.8,44.0,35.3,27.0,91,57,26,30.44,30.30,8,1,0,0.00
2013-3-15,68.9,56.5,42.3,55.0,48.8,42.0,99,78,49,30.31,30.14,8,2,0,0.00
2013-3-16,73.8,63.9,50.1,63.0,58.3,49.0,99,83,64,30.14,29.98,13,3,0,0.00
2013-3-17,74.6,64.2,56.0,66.0,61.5,56.0,100,91,72,30.00,29.87,10,3,0,0.00
2013-3-18,78.6,70.1,64.9,72.0,67.3,62.0,98,91,78,29.91,29.77,9,4,0,0.00
2013-3-19,79.2,65.7,56.7,68.0,58.7,50.0,98,80,52,30.03,29.86,10,2,0,0.01
2013-3-20,71.3,58.7,46.6,50.0,42.5,35.0,79,57,31,30.12,29.97,7,1,0,0.00
2013-3-21,68.3,54.6,44.1,47.0,39.9,34.0,76,59,33,30.07,29.89,9,2,0,0.00
2013-3-22,69.2,61.8,52.6,62.0,56.0,41.0,91,81,57,29.91,29.81,14,5,0,0.02
2013-3-23,74.7,67.5,62.3,71.0,65.9,61.0,99,94,88,29.86,29.58,11,4,0,0.22
2013-3-24,76.1,66.4,49.9,70.0,57.2,36.0,100,75,39,29.96,29.57,16,4,0,0.00
2013-3-25,62.0,49.7,38.9,37.0,31.7,25.0,80,54,25,30.23,29.97,13,2,0,0.00
2013-3-26,59.8,46.9,35.8,33.0,30.8,27.0,79,56,31,30.37,30.23,13,1,0,0.00
2013-3-27,58.0,46.2,34.6,42.0,35.6,31.0,93,69,47,30.45,30.30,9,2,0,0.00
2013-3-28,65.9,51.9,38.6,48.0,43.2,38.0,99,76,38,30.36,30.25,12,2,0,0.00
2013-3-29,70.0,56.2,43.7,60.0,52.0,43.0,100,87,58,30.33,30.21,9,2,0,0.00
2013-3-30,72.9,62.8,50.8,63.0,57.9,50.0,100,85,60,30.21,30.03,17,3,0,0.00
2013-3-31,76.0,65.1,56.4,69.0,63.0,56.0,100,93,79,30.07,29.86,13,2,0,0.21